Airfield :
LOGIN :

Register | Disclaimer

   EN    FR    IT 

 










Legend :    VFR   Marginal VFR   IFR   Intensive IFR   Very Intensive IFR
Visi :
Ceiling :
>= 8 km
>= 3000ft
5 to 8 km
1000 to 3000 ft
1500m to 5 km
500 to 1000 ft
800 to 1500m
200 to 500 ft
< 800m
< 200 ft
Symbols :   Thunderstorms  Fog  Heavy snow  Heavy precipitations  Wind > 20 kt
SIGMETs :     Misc.  Thunderstorms  Icing  Turbulence  Mountain Waves  Volcanic Ashes






- Airport Elevation : 1036 ft
- IATA code : ERF


EDDE - Erfurt

CURRENT METAR :
  • 221550Z 24025KT 9999 BKN033 10/02 Q1016 TEMPO 24030G40KT

EXPIRED METARs :
  • 221520Z 24030G44KT 9999 FEW040 10/01 Q1015 NOSIG
  • 221450Z 24031G46KT 9999 SCT036 11/00 Q1015 NOSIG
  • 221420Z 23023G34KT CAVOK 12/M00 Q1016 NOSIG
  • 221350Z 22025G36KT CAVOK 11/M01 Q1015 NOSIG
  • 221320Z 23025G37KT CAVOK 11/M01 Q1016 NOSIG
  • 221250Z 22024G36KT CAVOK 11/M01 Q1016 NOSIG

TAF TAF EDDE
Valid from the 22 at 12:00 until the 23 at 12:00 UTC


221100Z 2212/2312 22025G35KT 9999 SCT030
TEMPO 2212/2218 23030G45KT
BECMG 2218/2221 25020G30KT
BECMG 2300/2303 23015KT
BECMG 2306/2309 20010KT RA
BECMG 2309/2312 24035G50KT NSW



MET'MAP, your aeronautical weather chart ! - Copyright ORBIFLY December 2007 - Disclaimer

ORBIFLY MET'MAP TEAM :

Programming & Development : Alexandra Zaïnal
Concept & original design : Baudouin d'Aumeries
Assistance for programming : Marc-Olivier Méhu
Technical & hardware support : Manuel Goepfert

Contact : metmap@orbifly.com




SOURCES & CREDITS :

   NOAA